WAT251 KMSP-KPHX
Flight info
| Callsign | WAT251 |
|---|---|
| Flight time | N/A |
| Altitude | 36000 |
| Route | SCHEP1 RXANN DCT TEYOU DCT LLUKY DCT PUB DCT ALS J102 GUP EAGUL6 |
| Aircraft | B739/M-SDE2E3FGHIRWXY/LB1 |
Departure
| Time | 2026-05-05 23:08 |
|---|---|
| Airport | Minneapolis–Saint Paul International Airport / Wold–Chamberlain Field (KMSP) |
Arrival
| Time | N/A |
|---|---|
| Airport | Phoenix Sky Harbor International Airport (KPHX) |
| Time | Latitude | Longitude | Altitude | Speed | Heading |
|---|---|---|---|---|---|
| 2026-05-05 22:35 | 44.88091 | -93.21133 | 821 ft | 0 kts | 50° |
| 2026-05-05 22:59 | 44.88084 | -93.21144 | 820 ft | 2 kts | 50° |
| 2026-05-05 22:59 | 44.88075 | -93.21160 | 821 ft | 2 kts | 50° |
| 2026-05-05 22:59 | 44.88066 | -93.21176 | 821 ft | 2 kts | 50° |
| 2026-05-05 22:59 | 44.88056 | -93.21192 | 821 ft | 2 kts | 50° |
| 2026-05-05 23:00 | 44.88037 | -93.21224 | 822 ft | 2 kts | 50° |
| 2026-05-05 23:00 | 44.88027 | -93.21241 | 821 ft | 2 kts | 50° |
| 2026-05-05 23:00 | 44.88017 | -93.21257 | 821 ft | 2 kts | 51° |
| 2026-05-05 23:01 | 44.88014 | -93.21269 | 821 ft | 0 kts | 97° |
| 2026-05-05 23:01 | 44.88015 | -93.21278 | 821 ft | 0 kts | 92° |
| 2026-05-05 23:03 | 44.88014 | -93.21268 | 821 ft | 1 kts | 92° |
| 2026-05-05 23:03 | 44.88014 | -93.21243 | 821 ft | 4 kts | 92° |
| 2026-05-05 23:03 | 44.88011 | -93.21175 | 821 ft | 10 kts | 101° |
| 2026-05-05 23:04 | 44.87972 | -93.21077 | 819 ft | 11 kts | 122° |
| 2026-05-05 23:04 | 44.87927 | -93.20974 | 817 ft | 12 kts | 122° |
| 2026-05-05 23:04 | 44.87880 | -93.20864 | 815 ft | 12 kts | 121° |
| 2026-05-05 23:04 | 44.87838 | -93.20765 | 814 ft | 11 kts | 122° |
| 2026-05-05 23:05 | 44.87796 | -93.20670 | 814 ft | 11 kts | 122° |
| 2026-05-05 23:05 | 44.87755 | -93.20576 | 812 ft | 11 kts | 120° |
| 2026-05-05 23:05 | 44.87712 | -93.20479 | 811 ft | 11 kts | 122° |
| 2026-05-05 23:05 | 44.87667 | -93.20375 | 808 ft | 12 kts | 121° |
| 2026-05-05 23:06 | 44.87626 | -93.20278 | 808 ft | 9 kts | 121° |
| 2026-05-05 23:06 | 44.87589 | -93.20193 | 808 ft | 12 kts | 121° |
| 2026-05-05 23:06 | 44.87537 | -93.20073 | 806 ft | 14 kts | 121° |
| 2026-05-05 23:06 | 44.87471 | -93.20038 | 805 ft | 9 kts | 204° |
| 2026-05-05 23:07 | 44.87421 | -93.20082 | 806 ft | 7 kts | 215° |
| 2026-05-05 23:07 | 44.87374 | -93.20139 | 805 ft | 9 kts | 255° |
| 2026-05-05 23:07 | 44.87396 | -93.20216 | 806 ft | 8 kts | 302° |
| 2026-05-05 23:07 | 44.87467 | -93.20381 | 807 ft | 44 kts | 301° |
| 2026-05-05 23:08 | 44.87747 | -93.21028 | 818 ft | 108 kts | 301° |
| 2026-05-05 23:08 | 44.88239 | -93.22166 | 845 ft | 163 kts | 301° |
| 2026-05-05 23:08 | 44.88832 | -93.23531 | 1546 ft | 166 kts | 302° |
| 2026-05-05 23:08 | 44.89427 | -93.24972 | 2168 ft | 175 kts | 301° |
| 2026-05-05 23:09 | 44.90032 | -93.26495 | 2633 ft | 182 kts | 301° |
| 2026-05-05 23:09 | 44.90688 | -93.28149 | 2836 ft | 201 kts | 301° |
| 2026-05-05 23:09 | 44.91358 | -93.29907 | 3206 ft | 212 kts | 291° |
| 2026-05-05 23:09 | 44.91360 | -93.32048 | 3481 ft | 235 kts | 254° |
| 2026-05-05 23:10 | 44.90383 | -93.34013 | 3906 ft | 253 kts | 228° |
| 2026-05-05 23:10 | 44.89008 | -93.35658 | 4310 ft | 264 kts | 224° |
| 2026-05-05 23:10 | 44.87611 | -93.37309 | 4879 ft | 266 kts | 226° |
| 2026-05-05 23:10 | 44.86229 | -93.39072 | 5465 ft | 268 kts | 228° |
| 2026-05-05 23:11 | 44.84901 | -93.40889 | 6092 ft | 268 kts | 229° |
| 2026-05-05 23:11 | 44.83595 | -93.42741 | 6709 ft | 269 kts | 230° |
| 2026-05-05 23:11 | 44.82263 | -93.44636 | 7347 ft | 271 kts | 230° |
| 2026-05-05 23:11 | 44.80948 | -93.46491 | 7976 ft | 272 kts | 230° |
| 2026-05-05 23:12 | 44.79612 | -93.48364 | 8631 ft | 273 kts | 229° |
| 2026-05-05 23:12 | 44.78258 | -93.50256 | 9277 ft | 274 kts | 230° |
| 2026-05-05 23:12 | 44.76926 | -93.52119 | 9954 ft | 275 kts | 230° |
| 2026-05-05 23:12 | 44.75555 | -93.54034 | 10419 ft | 284 kts | 230° |
| 2026-05-05 23:13 | 44.74113 | -93.56058 | 10737 ft | 298 kts | 230° |
| 2026-05-05 23:13 | 44.72617 | -93.58151 | 11031 ft | 313 kts | 229° |
| 2026-05-05 23:13 | 44.71048 | -93.60339 | 11334 ft | 326 kts | 229° |
| 2026-05-05 23:13 | 44.69480 | -93.62740 | 11652 ft | 338 kts | 234° |
| 2026-05-05 23:14 | 44.68017 | -93.65391 | 11915 ft | 352 kts | 237° |
| 2026-05-05 23:14 | 44.66565 | -93.68227 | 12304 ft | 361 kts | 238° |
| 2026-05-05 23:14 | 44.65115 | -93.71099 | 12852 ft | 367 kts | 237° |
| 2026-05-05 23:14 | 44.63622 | -93.74033 | 13443 ft | 371 kts | 237° |
| 2026-05-05 23:15 | 44.62099 | -93.76997 | 13939 ft | 377 kts | 237° |
| 2026-05-05 23:15 | 44.60572 | -93.79940 | 14631 ft | 379 kts | 237° |
| 2026-05-05 23:15 | 44.59026 | -93.82903 | 15430 ft | 378 kts | 237° |
| 2026-05-05 23:15 | 44.57480 | -93.85857 | 16198 ft | 377 kts | 237° |
| 2026-05-05 23:16 | 44.55931 | -93.88818 | 16882 ft | 378 kts | 237° |
| 2026-05-05 23:16 | 44.54383 | -93.91775 | 17533 ft | 379 kts | 237° |
| 2026-05-05 23:16 | 44.52817 | -93.94764 | 18199 ft | 380 kts | 237° |
| 2026-05-05 23:16 | 44.51274 | -93.97706 | 18880 ft | 379 kts | 237° |
| 2026-05-05 23:17 | 44.49715 | -94.00674 | 19522 ft | 379 kts | 237° |
| 2026-05-05 23:17 | 44.48103 | -94.03738 | 20144 ft | 380 kts | 238° |
| 2026-05-05 23:17 | 44.46457 | -94.06868 | 20728 ft | 382 kts | 238° |
| 2026-05-05 23:17 | 44.44802 | -94.10009 | 21344 ft | 382 kts | 238° |
| 2026-05-05 23:18 | 44.43221 | -94.13008 | 21952 ft | 381 kts | 238° |
| 2026-05-05 23:18 | 44.41648 | -94.15988 | 22508 ft | 381 kts | 238° |
| 2026-05-05 23:18 | 44.40085 | -94.18942 | 23072 ft | 380 kts | 239° |
| 2026-05-05 23:18 | 44.38518 | -94.21900 | 23673 ft | 378 kts | 239° |
| 2026-05-05 23:19 | 44.36960 | -94.24842 | 24187 ft | 378 kts | 239° |
| 2026-05-05 23:19 | 44.35399 | -94.27790 | 24674 ft | 379 kts | 239° |
| 2026-05-05 23:19 | 44.33825 | -94.30760 | 25108 ft | 382 kts | 239° |
| 2026-05-05 23:19 | 44.32243 | -94.33742 | 25573 ft | 383 kts | 239° |
| 2026-05-05 23:20 | 44.30654 | -94.36734 | 25906 ft | 388 kts | 239° |
| 2026-05-05 23:20 | 44.29028 | -94.39788 | 26431 ft | 387 kts | 239° |
| 2026-05-05 23:20 | 44.27423 | -94.42793 | 27025 ft | 384 kts | 239° |
| 2026-05-05 23:20 | 44.25824 | -94.45788 | 27377 ft | 386 kts | 239° |
| 2026-05-05 23:21 | 44.24245 | -94.48740 | 28055 ft | 381 kts | 239° |
| 2026-05-05 23:21 | 44.22657 | -94.51704 | 28875 ft | 373 kts | 239° |
| 2026-05-05 23:21 | 44.21109 | -94.54589 | 29580 ft | 366 kts | 239° |
| 2026-05-05 23:21 | 44.19604 | -94.57400 | 30124 ft | 362 kts | 239° |
| 2026-05-05 23:22 | 44.18117 | -94.60176 | 30538 ft | 361 kts | 239° |
| 2026-05-05 23:22 | 44.16615 | -94.62986 | 30851 ft | 361 kts | 239° |
| 2026-05-05 23:22 | 44.15106 | -94.65802 | 31141 ft | 362 kts | 239° |
| 2026-05-05 23:22 | 44.13601 | -94.68610 | 31434 ft | 363 kts | 239° |
| 2026-05-05 23:23 | 44.12085 | -94.71436 | 31723 ft | 363 kts | 239° |
| 2026-05-05 23:23 | 44.10554 | -94.74282 | 32008 ft | 363 kts | 239° |
| 2026-05-05 23:23 | 44.09040 | -94.77092 | 32313 ft | 362 kts | 239° |
| 2026-05-05 23:23 | 44.07515 | -94.79919 | 32551 ft | 363 kts | 239° |
| 2026-05-05 23:24 | 44.06003 | -94.82720 | 32762 ft | 364 kts | 239° |
| 2026-05-05 23:24 | 44.04475 | -94.85550 | 33004 ft | 364 kts | 240° |
| 2026-05-05 23:24 | 44.02966 | -94.88342 | 33240 ft | 364 kts | 239° |
| 2026-05-05 23:24 | 44.01438 | -94.91163 | 33566 ft | 361 kts | 240° |
| 2026-05-05 23:25 | 43.99912 | -94.93977 | 33795 ft | 362 kts | 240° |
| 2026-05-05 23:25 | 43.98420 | -94.96769 | 33949 ft | 363 kts | 240° |
| 2026-05-05 23:25 | 43.96948 | -94.99589 | 34171 ft | 363 kts | 240° |
| 2026-05-05 23:25 | 43.95481 | -95.02428 | 34407 ft | 363 kts | 241° |
| 2026-05-05 23:26 | 43.93997 | -95.05305 | 34590 ft | 364 kts | 240° |
| 2026-05-05 23:26 | 43.92529 | -95.08144 | 34793 ft | 365 kts | 240° |
| 2026-05-05 23:26 | 43.91046 | -95.10998 | 35031 ft | 364 kts | 240° |
| 2026-05-05 23:26 | 43.89560 | -95.13853 | 35191 ft | 365 kts | 240° |
| 2026-05-05 23:27 | 43.88090 | -95.16672 | 35391 ft | 365 kts | 240° |
| 2026-05-05 23:27 | 43.86602 | -95.19523 | 35579 ft | 365 kts | 240° |
| 2026-05-05 23:27 | 43.85106 | -95.22385 | 35745 ft | 366 kts | 239° |
| 2026-05-05 23:27 | 43.83618 | -95.25227 | 35901 ft | 366 kts | 240° |
| 2026-05-05 23:28 | 43.80616 | -95.30949 | 35927 ft | 370 kts | 239° |
| 2026-05-05 23:28 | 43.77599 | -95.36681 | 35930 ft | 367 kts | 240° |
| 2026-05-05 23:29 | 43.74586 | -95.42403 | 35936 ft | 367 kts | 240° |
| 2026-05-05 23:29 | 43.71581 | -95.48105 | 35945 ft | 369 kts | 240° |
| 2026-05-05 23:30 | 43.69070 | -95.52853 | 35951 ft | 367 kts | 239° |
| 2026-05-05 23:30 | 43.65564 | -95.59480 | 35957 ft | 369 kts | 240° |
| 2026-05-05 23:31 | 43.62538 | -95.65176 | 35952 ft | 367 kts | 239° |
| 2026-05-05 23:31 | 43.59515 | -95.70856 | 35948 ft | 369 kts | 238° |
| 2026-05-05 23:32 | 43.56481 | -95.76550 | 35943 ft | 368 kts | 239° |
| 2026-05-05 23:32 | 43.53464 | -95.82198 | 35937 ft | 368 kts | 238° |
| 2026-05-05 23:33 | 43.50434 | -95.87870 | 35942 ft | 370 kts | 239° |
| 2026-05-05 23:33 | 43.47391 | -95.93554 | 35940 ft | 369 kts | 238° |
| 2026-05-05 23:34 | 43.44357 | -95.99201 | 35942 ft | 368 kts | 239° |
| 2026-05-05 23:34 | 43.41325 | -96.04834 | 35941 ft | 367 kts | 239° |
| 2026-05-05 23:35 | 43.38287 | -96.10468 | 35948 ft | 369 kts | 239° |
| 2026-05-05 23:35 | 43.35233 | -96.16125 | 35947 ft | 369 kts | 238° |
| 2026-05-05 23:36 | 43.32153 | -96.21810 | 35948 ft | 369 kts | 238° |
| 2026-05-05 23:36 | 43.29246 | -96.27567 | 35943 ft | 364 kts | 244° |
| 2026-05-05 23:37 | 43.26988 | -96.33767 | 35949 ft | 364 kts | 249° |
| 2026-05-05 23:37 | 43.24941 | -96.40119 | 35948 ft | 363 kts | 249° |
| 2026-05-05 23:38 | 43.22906 | -96.46440 | 35946 ft | 362 kts | 249° |
| 2026-05-05 23:38 | 43.20838 | -96.52782 | 35949 ft | 364 kts | 249° |
| 2026-05-05 23:39 | 43.18785 | -96.59063 | 35951 ft | 363 kts | 248° |
| 2026-05-05 23:39 | 43.16711 | -96.65363 | 35955 ft | 362 kts | 248° |
| 2026-05-05 23:40 | 43.14637 | -96.71646 | 35953 ft | 364 kts | 248° |
| 2026-05-05 23:40 | 43.12550 | -96.77943 | 35954 ft | 364 kts | 248° |
| 2026-05-05 23:41 | 43.10469 | -96.84214 | 35957 ft | 364 kts | 248° |
| 2026-05-05 23:41 | 43.08374 | -96.90531 | 35958 ft | 363 kts | 248° |
| 2026-05-05 23:42 | 43.06285 | -96.96801 | 35960 ft | 365 kts | 248° |
| 2026-05-05 23:42 | 43.04177 | -97.03109 | 35958 ft | 365 kts | 248° |
| 2026-05-05 23:43 | 43.02080 | -97.09373 | 35961 ft | 363 kts | 248° |
| 2026-05-05 23:43 | 42.99974 | -97.15646 | 35961 ft | 364 kts | 248° |
| 2026-05-05 23:44 | 42.97867 | -97.21916 | 35960 ft | 365 kts | 248° |
| 2026-05-05 23:44 | 42.95758 | -97.28167 | 35964 ft | 363 kts | 248° |
| 2026-05-05 23:45 | 42.93642 | -97.34433 | 35962 ft | 364 kts | 248° |
| 2026-05-05 23:45 | 42.91524 | -97.40682 | 35972 ft | 363 kts | 248° |
| 2026-05-05 23:46 | 42.89418 | -97.46888 | 35972 ft | 363 kts | 248° |
| 2026-05-05 23:46 | 42.87281 | -97.53170 | 35968 ft | 364 kts | 248° |
| 2026-05-05 23:47 | 42.85165 | -97.59367 | 35968 ft | 362 kts | 247° |
| 2026-05-05 23:47 | 42.83030 | -97.65613 | 35968 ft | 365 kts | 247° |
| 2026-05-05 23:48 | 42.80886 | -97.71878 | 35965 ft | 365 kts | 247° |
| 2026-05-05 23:48 | 42.78745 | -97.78115 | 35967 ft | 364 kts | 247° |
| 2026-05-05 23:49 | 42.76611 | -97.84310 | 35973 ft | 364 kts | 247° |
| 2026-05-05 23:49 | 42.74459 | -97.90547 | 35982 ft | 365 kts | 247° |
| 2026-05-05 23:50 | 42.72312 | -97.96762 | 35978 ft | 364 kts | 247° |
| 2026-05-05 23:50 | 42.70166 | -98.02961 | 35982 ft | 365 kts | 246° |
| 2026-05-05 23:51 | 42.68012 | -98.09157 | 35980 ft | 364 kts | 247° |
| 2026-05-05 23:51 | 42.65841 | -98.15394 | 35979 ft | 365 kts | 246° |
| 2026-05-05 23:52 | 42.63693 | -98.21551 | 35977 ft | 365 kts | 246° |
| 2026-05-05 23:52 | 42.61513 | -98.27788 | 35972 ft | 364 kts | 246° |
| 2026-05-05 23:53 | 42.59340 | -98.33988 | 35972 ft | 365 kts | 247° |
| 2026-05-05 23:53 | 42.57175 | -98.40158 | 35970 ft | 365 kts | 247° |
| 2026-05-05 23:54 | 42.54991 | -98.46365 | 35973 ft | 364 kts | 246° |
| 2026-05-05 23:54 | 42.52805 | -98.52554 | 35977 ft | 365 kts | 247° |
| 2026-05-05 23:55 | 42.50617 | -98.58723 | 35981 ft | 364 kts | 246° |
| 2026-05-05 23:55 | 42.48106 | -98.64686 | 35990 ft | 370 kts | 239° |
| 2026-05-05 23:56 | 42.44768 | -98.70032 | 35993 ft | 374 kts | 232° |
| 2026-05-05 23:56 | 42.41271 | -98.75223 | 35987 ft | 373 kts | 233° |
| 2026-05-05 23:57 | 42.37828 | -98.80431 | 35985 ft | 372 kts | 233° |
| 2026-05-05 23:57 | 42.34378 | -98.85666 | 35975 ft | 372 kts | 233° |
| 2026-05-05 23:58 | 42.30947 | -98.90861 | 35968 ft | 374 kts | 233° |
| 2026-05-05 23:58 | 42.27470 | -98.96114 | 35964 ft | 374 kts | 233° |
| 2026-05-05 23:59 | 42.24016 | -99.01318 | 35967 ft | 374 kts | 234° |
| 2026-05-05 23:59 | 42.20552 | -99.06528 | 35963 ft | 373 kts | 233° |
| 2026-05-06 00:00 | 42.17099 | -99.11710 | 35970 ft | 376 kts | 233° |
| 2026-05-06 00:00 | 42.13602 | -99.16949 | 35968 ft | 375 kts | 233° |
| 2026-05-06 00:01 | 42.10144 | -99.22127 | 35966 ft | 375 kts | 233° |
| 2026-05-06 00:01 | 42.06651 | -99.27344 | 35968 ft | 375 kts | 233° |
| 2026-05-06 00:02 | 42.03178 | -99.32529 | 35971 ft | 375 kts | 233° |
| 2026-05-06 00:02 | 41.99691 | -99.37724 | 35964 ft | 375 kts | 233° |
| 2026-05-06 00:03 | 41.96193 | -99.42924 | 35968 ft | 374 kts | 233° |
| 2026-05-06 00:03 | 41.92731 | -99.48058 | 35972 ft | 373 kts | 233° |
| 2026-05-06 00:04 | 41.89257 | -99.53203 | 35965 ft | 372 kts | 233° |
| 2026-05-06 00:04 | 41.85774 | -99.58349 | 35968 ft | 373 kts | 233° |
| 2026-05-06 00:05 | 41.80557 | -99.66048 | 35968 ft | 372 kts | 232° |
| 2026-05-06 00:06 | 41.77060 | -99.71189 | 35970 ft | 373 kts | 232° |
| 2026-05-06 00:06 | 41.73561 | -99.76332 | 35974 ft | 374 kts | 232° |
| 2026-05-06 00:07 | 41.70045 | -99.81486 | 35969 ft | 373 kts | 232° |
| 2026-05-06 00:07 | 41.66558 | -99.86589 | 35971 ft | 374 kts | 232° |
| 2026-05-06 00:08 | 41.63036 | -99.91738 | 35967 ft | 375 kts | 233° |
| 2026-05-06 00:08 | 41.59540 | -99.96839 | 35968 ft | 374 kts | 232° |
| 2026-05-06 00:09 | 41.56015 | -100.01975 | 35964 ft | 376 kts | 232° |
| 2026-05-06 00:09 | 41.52490 | -100.07101 | 35965 ft | 376 kts | 232° |
| 2026-05-06 00:10 | 41.48963 | -100.12213 | 35966 ft | 376 kts | 233° |
| 2026-05-06 00:10 | 41.45438 | -100.17320 | 35966 ft | 376 kts | 232° |
| 2026-05-06 00:11 | 41.41895 | -100.22442 | 35969 ft | 376 kts | 232° |
| 2026-05-06 00:11 | 41.38355 | -100.27554 | 35967 ft | 376 kts | 232° |
| 2026-05-06 00:12 | 41.34817 | -100.32655 | 35967 ft | 376 kts | 232° |
| 2026-05-06 00:12 | 41.31269 | -100.37762 | 35968 ft | 376 kts | 232° |
| 2026-05-06 00:13 | 41.27743 | -100.42828 | 35968 ft | 376 kts | 232° |
| 2026-05-06 00:13 | 41.24174 | -100.47945 | 35971 ft | 377 kts | 232° |
| 2026-05-06 00:14 | 41.20606 | -100.53052 | 35974 ft | 378 kts | 232° |
| 2026-05-06 00:14 | 41.17038 | -100.58150 | 35972 ft | 376 kts | 232° |
| 2026-05-06 00:15 | 41.13494 | -100.63200 | 35969 ft | 377 kts | 232° |
| 2026-05-06 00:15 | 41.09929 | -100.68276 | 35970 ft | 378 kts | 231° |
| 2026-05-06 00:16 | 41.06337 | -100.73373 | 35972 ft | 377 kts | 232° |
| 2026-05-06 00:16 | 41.02765 | -100.78447 | 35977 ft | 377 kts | 232° |
| 2026-05-06 00:17 | 40.99193 | -100.83513 | 35980 ft | 378 kts | 231° |
| 2026-05-06 00:17 | 40.95623 | -100.88562 | 35975 ft | 377 kts | 231° |
| 2026-05-06 00:18 | 40.92042 | -100.93619 | 35976 ft | 377 kts | 232° |
| 2026-05-06 00:18 | 40.88457 | -100.98675 | 35973 ft | 377 kts | 231° |
| 2026-05-06 00:19 | 40.84881 | -101.03709 | 35974 ft | 376 kts | 231° |
| 2026-05-06 00:19 | 40.81310 | -101.08721 | 35975 ft | 377 kts | 231° |
| 2026-05-06 00:20 | 40.77726 | -101.13749 | 35968 ft | 377 kts | 231° |
| 2026-05-06 00:20 | 40.74143 | -101.18764 | 35963 ft | 376 kts | 231° |
| 2026-05-06 00:21 | 40.70560 | -101.23772 | 35959 ft | 377 kts | 231° |
| 2026-05-06 00:21 | 40.66974 | -101.28771 | 35964 ft | 375 kts | 231° |
| 2026-05-06 00:22 | 40.63409 | -101.33736 | 35971 ft | 375 kts | 231° |
| 2026-05-06 00:22 | 40.59827 | -101.38724 | 35972 ft | 375 kts | 231° |
| 2026-05-06 00:23 | 40.56234 | -101.43713 | 35975 ft | 375 kts | 231° |
| 2026-05-06 00:23 | 40.52639 | -101.48690 | 35978 ft | 373 kts | 231° |
| 2026-05-06 00:24 | 40.49062 | -101.53639 | 35974 ft | 374 kts | 231° |
| 2026-05-06 00:24 | 40.45480 | -101.58583 | 35974 ft | 375 kts | 231° |
| 2026-05-06 00:25 | 40.41900 | -101.63522 | 35973 ft | 374 kts | 231° |
| 2026-05-06 00:25 | 40.38287 | -101.68499 | 35976 ft | 377 kts | 231° |
| 2026-05-06 00:26 | 40.34671 | -101.73469 | 35978 ft | 374 kts | 231° |
| 2026-05-06 00:26 | 40.31079 | -101.78400 | 35969 ft | 375 kts | 231° |
| 2026-05-06 00:27 | 40.27474 | -101.83337 | 35971 ft | 374 kts | 231° |
| 2026-05-06 00:27 | 40.23887 | -101.88245 | 35971 ft | 374 kts | 230° |
| 2026-05-06 00:28 | 40.20313 | -101.93123 | 35971 ft | 375 kts | 231° |
| 2026-05-06 00:28 | 40.16709 | -101.98035 | 35972 ft | 373 kts | 231° |
| 2026-05-06 00:29 | 40.13121 | -102.02917 | 35975 ft | 373 kts | 231° |
| 2026-05-06 00:29 | 40.09520 | -102.07812 | 35980 ft | 376 kts | 231° |
| 2026-05-06 00:30 | 40.05921 | -102.12693 | 35976 ft | 375 kts | 230° |
| 2026-05-06 00:30 | 40.02288 | -102.17618 | 35974 ft | 375 kts | 231° |
| 2026-05-06 00:31 | 39.98699 | -102.22472 | 35980 ft | 373 kts | 230° |
| 2026-05-06 00:31 | 39.95090 | -102.27338 | 35982 ft | 374 kts | 231° |
| 2026-05-06 00:32 | 39.91480 | -102.32198 | 35979 ft | 373 kts | 230° |
| 2026-05-06 00:32 | 39.87877 | -102.37041 | 35978 ft | 371 kts | 231° |
| 2026-05-06 00:33 | 39.84299 | -102.41850 | 35979 ft | 371 kts | 230° |
| 2026-05-06 00:33 | 39.80699 | -102.46677 | 35981 ft | 371 kts | 230° |
| 2026-05-06 00:34 | 39.77126 | -102.51469 | 35981 ft | 372 kts | 231° |
| 2026-05-06 00:34 | 39.73533 | -102.56272 | 35977 ft | 369 kts | 230° |
| 2026-05-06 00:35 | 39.69976 | -102.61014 | 36189 ft | 369 kts | 231° |
| 2026-05-06 00:35 | 39.68193 | -102.63397 | 35828 ft | 369 kts | 231° |
| 2026-05-06 00:35 | 39.66408 | -102.65778 | 35977 ft | 368 kts | 230° |
| 2026-05-06 00:36 | 39.62811 | -102.70572 | 35972 ft | 371 kts | 230° |
| 2026-05-06 00:36 | 39.59201 | -102.75363 | 35974 ft | 372 kts | 230° |
| 2026-05-06 00:37 | 39.55595 | -102.80135 | 35971 ft | 369 kts | 230° |
| 2026-05-06 00:37 | 39.51999 | -102.84901 | 35969 ft | 369 kts | 230° |
| 2026-05-06 00:38 | 39.48420 | -102.89629 | 35970 ft | 369 kts | 230° |
| 2026-05-06 00:38 | 39.44833 | -102.94368 | 35964 ft | 369 kts | 230° |
| 2026-05-06 00:39 | 39.41246 | -102.99100 | 35969 ft | 369 kts | 230° |
| 2026-05-06 00:39 | 39.37674 | -103.03813 | 35954 ft | 367 kts | 230° |
| 2026-05-06 00:40 | 39.34105 | -103.08501 | 35947 ft | 366 kts | 230° |
| 2026-05-06 00:40 | 39.30498 | -103.13234 | 35958 ft | 372 kts | 230° |
| 2026-05-06 00:41 | 39.26878 | -103.17970 | 35959 ft | 369 kts | 230° |
| 2026-05-06 00:41 | 39.23283 | -103.22659 | 35963 ft | 366 kts | 230° |
| 2026-05-06 00:42 | 39.19714 | -103.27322 | 35946 ft | 367 kts | 230° |
| 2026-05-06 00:42 | 39.16145 | -103.31982 | 35958 ft | 365 kts | 230° |
| 2026-05-06 00:43 | 39.12569 | -103.36636 | 35958 ft | 366 kts | 230° |
| 2026-05-06 00:43 | 39.08968 | -103.41316 | 35960 ft | 366 kts | 230° |
| 2026-05-06 00:44 | 39.05399 | -103.45942 | 35958 ft | 365 kts | 229° |
| 2026-05-06 00:44 | 39.01817 | -103.50593 | 35959 ft | 368 kts | 230° |
| 2026-05-06 00:45 | 38.98192 | -103.55276 | 35951 ft | 366 kts | 230° |
| 2026-05-06 00:45 | 38.94630 | -103.59879 | 35950 ft | 367 kts | 229° |
| 2026-05-06 00:46 | 38.91020 | -103.64545 | 35961 ft | 371 kts | 229° |
| 2026-05-06 00:46 | 38.87388 | -103.69216 | 35943 ft | 368 kts | 229° |
| 2026-05-06 00:47 | 38.83783 | -103.73848 | 35954 ft | 369 kts | 229° |
| 2026-05-06 00:47 | 38.80157 | -103.78502 | 35956 ft | 369 kts | 230° |
| 2026-05-06 00:48 | 38.76551 | -103.83130 | 35946 ft | 365 kts | 229° |
| 2026-05-06 00:48 | 38.72959 | -103.87730 | 35936 ft | 366 kts | 229° |
| 2026-05-06 00:49 | 38.69360 | -103.92334 | 35952 ft | 366 kts | 229° |
| 2026-05-06 00:49 | 38.65793 | -103.96877 | 35939 ft | 364 kts | 229° |
| 2026-05-06 00:50 | 38.62185 | -104.01473 | 35951 ft | 365 kts | 229° |
| 2026-05-06 00:50 | 38.58607 | -104.06020 | 35949 ft | 363 kts | 229° |
| 2026-05-06 00:51 | 38.55033 | -104.10572 | 35956 ft | 363 kts | 230° |
| 2026-05-06 00:51 | 38.51450 | -104.15125 | 35951 ft | 363 kts | 229° |
| 2026-05-06 00:52 | 38.47887 | -104.19636 | 35971 ft | 363 kts | 229° |
| 2026-05-06 00:52 | 38.44290 | -104.24186 | 35957 ft | 364 kts | 229° |
| 2026-05-06 00:53 | 38.40683 | -104.28748 | 35959 ft | 363 kts | 230° |
| 2026-05-06 00:53 | 38.37122 | -104.33282 | 35957 ft | 362 kts | 231° |
| 2026-05-06 00:54 | 38.33792 | -104.38072 | 35972 ft | 362 kts | 230° |
| 2026-05-06 00:54 | 38.30064 | -104.42409 | 35969 ft | 361 kts | 228° |
| 2026-05-06 00:55 | 38.26628 | -104.47022 | 35968 ft | 358 kts | 232° |
| 2026-05-06 00:55 | 38.23403 | -104.51852 | 35954 ft | 358 kts | 233° |
| 2026-05-06 00:56 | 38.20228 | -104.56622 | 35956 ft | 355 kts | 233° |
| 2026-05-06 00:56 | 38.17023 | -104.61427 | 35967 ft | 357 kts | 233° |
| 2026-05-06 00:57 | 38.13824 | -104.66206 | 35972 ft | 358 kts | 233° |
| 2026-05-06 00:57 | 38.10610 | -104.70983 | 35989 ft | 355 kts | 232° |
| 2026-05-06 00:58 | 38.07399 | -104.75755 | 35978 ft | 357 kts | 233° |
| 2026-05-06 00:58 | 38.04180 | -104.80544 | 35972 ft | 355 kts | 232° |
| 2026-05-06 00:59 | 38.00956 | -104.85298 | 35963 ft | 357 kts | 232° |
| 2026-05-06 00:59 | 37.97757 | -104.90021 | 35963 ft | 353 kts | 233° |
| 2026-05-06 01:00 | 37.94537 | -104.94780 | 35973 ft | 359 kts | 232° |
| 2026-05-06 01:00 | 37.91307 | -104.99538 | 35969 ft | 356 kts | 232° |
| 2026-05-06 01:01 | 37.88052 | -105.04316 | 35973 ft | 357 kts | 233° |
| 2026-05-06 01:01 | 37.84826 | -105.09074 | 35970 ft | 356 kts | 232° |
| 2026-05-06 01:02 | 37.81589 | -105.13822 | 35974 ft | 359 kts | 232° |
| 2026-05-06 01:02 | 37.78348 | -105.18567 | 35976 ft | 357 kts | 233° |
| 2026-05-06 01:03 | 37.75066 | -105.23328 | 36160 ft | 359 kts | 233° |
| 2026-05-06 01:03 | 37.73457 | -105.25678 | 35928 ft | 352 kts | 232° |
| 2026-05-06 01:03 | 37.71845 | -105.28043 | 35771 ft | 358 kts | 232° |
| 2026-05-06 01:03 | 37.70235 | -105.30401 | 35904 ft | 353 kts | 232° |
| 2026-05-06 01:04 | 37.68637 | -105.32735 | 36184 ft | 357 kts | 232° |
| 2026-05-06 01:04 | 37.67005 | -105.35126 | 35987 ft | 359 kts | 232° |
| 2026-05-06 01:04 | 37.65387 | -105.37484 | 35976 ft | 352 kts | 232° |
| 2026-05-06 01:05 | 37.62179 | -105.42160 | 35975 ft | 355 kts | 232° |
| 2026-05-06 01:05 | 37.58927 | -105.46873 | 35978 ft | 359 kts | 231° |
| 2026-05-06 01:06 | 37.55673 | -105.51565 | 35986 ft | 356 kts | 232° |
| 2026-05-06 01:06 | 37.52419 | -105.56274 | 35985 ft | 358 kts | 232° |
| 2026-05-06 01:07 | 37.49175 | -105.60989 | 35980 ft | 355 kts | 233° |
| 2026-05-06 01:07 | 37.45932 | -105.65699 | 35965 ft | 358 kts | 231° |
| 2026-05-06 01:08 | 37.42683 | -105.70388 | 35964 ft | 357 kts | 232° |
| 2026-05-06 01:08 | 37.39410 | -105.75085 | 35954 ft | 358 kts | 231° |
| 2026-05-06 01:09 | 37.36139 | -105.79767 | 35950 ft | 357 kts | 232° |
| 2026-05-06 01:09 | 37.32966 | -105.84557 | 35951 ft | 356 kts | 234° |
| 2026-05-06 01:10 | 37.30056 | -105.89604 | 35966 ft | 355 kts | 236° |
| 2026-05-06 01:10 | 37.27198 | -105.94596 | 35973 ft | 352 kts | 235° |
| 2026-05-06 01:11 | 37.24302 | -105.99551 | 35988 ft | 355 kts | 235° |
| 2026-05-06 01:11 | 37.21370 | -106.04546 | 35993 ft | 356 kts | 235° |
| 2026-05-06 01:12 | 37.18446 | -106.09521 | 35998 ft | 352 kts | 236° |
| 2026-05-06 01:12 | 37.15515 | -106.14499 | 35996 ft | 357 kts | 235° |
| 2026-05-06 01:13 | 37.12576 | -106.19459 | 35987 ft | 354 kts | 235° |
| 2026-05-06 01:13 | 37.09653 | -106.24382 | 35980 ft | 354 kts | 235° |
| 2026-05-06 01:14 | 37.05250 | -106.31808 | 35978 ft | 355 kts | 234° |
| 2026-05-06 01:14 | 37.02308 | -106.36752 | 35974 ft | 353 kts | 235° |
| 2026-05-06 01:15 | 36.99376 | -106.41693 | 35974 ft | 356 kts | 234° |
| 2026-05-06 01:15 | 36.96441 | -106.46616 | 35978 ft | 354 kts | 235° |
| 2026-05-06 01:16 | 36.93500 | -106.51549 | 35983 ft | 354 kts | 235° |
| 2026-05-06 01:16 | 36.90562 | -106.56454 | 35990 ft | 355 kts | 234° |
| 2026-05-06 01:17 | 36.87589 | -106.61401 | 35992 ft | 356 kts | 234° |
| 2026-05-06 01:17 | 36.84627 | -106.66316 | 35990 ft | 358 kts | 234° |
| 2026-05-06 01:18 | 36.81645 | -106.71263 | 35997 ft | 356 kts | 235° |
| 2026-05-06 01:18 | 36.78689 | -106.76183 | 35994 ft | 353 kts | 235° |
| 2026-05-06 01:19 | 36.75734 | -106.81102 | 35999 ft | 356 kts | 234° |
| 2026-05-06 01:19 | 36.72750 | -106.86053 | 36002 ft | 355 kts | 234° |
| 2026-05-06 01:20 | 36.69794 | -106.90935 | 35998 ft | 353 kts | 234° |
| 2026-05-06 01:20 | 36.66837 | -106.95812 | 36002 ft | 356 kts | 235° |
| 2026-05-06 01:21 | 36.63874 | -107.00708 | 36006 ft | 355 kts | 234° |
| 2026-05-06 01:21 | 36.60905 | -107.05602 | 36008 ft | 356 kts | 234° |
| 2026-05-06 01:22 | 36.57918 | -107.10519 | 36008 ft | 357 kts | 234° |
| 2026-05-06 01:22 | 36.54933 | -107.15424 | 36003 ft | 356 kts | 234° |
| 2026-05-06 01:23 | 36.51933 | -107.20341 | 36002 ft | 358 kts | 234° |
| 2026-05-06 01:23 | 36.48948 | -107.25237 | 35998 ft | 356 kts | 234° |
| 2026-05-06 01:24 | 36.45941 | -107.30142 | 35997 ft | 357 kts | 234° |
| 2026-05-06 01:24 | 36.42937 | -107.35051 | 35991 ft | 358 kts | 234° |
| 2026-05-06 01:25 | 36.39920 | -107.39973 | 35986 ft | 359 kts | 234° |
| 2026-05-06 01:25 | 36.36904 | -107.44884 | 35986 ft | 357 kts | 234° |
| 2026-05-06 01:26 | 36.33901 | -107.49773 | 35979 ft | 358 kts | 234° |
| 2026-05-06 01:26 | 36.30878 | -107.54689 | 35985 ft | 358 kts | 234° |
| 2026-05-06 01:27 | 36.27870 | -107.59568 | 35984 ft | 358 kts | 234° |
| 2026-05-06 01:27 | 36.24827 | -107.64485 | 35993 ft | 360 kts | 234° |
| 2026-05-06 01:28 | 36.21804 | -107.69367 | 35994 ft | 356 kts | 233° |
| 2026-05-06 01:28 | 36.18778 | -107.74251 | 35988 ft | 358 kts | 233° |
| 2026-05-06 01:29 | 36.15764 | -107.79112 | 35990 ft | 357 kts | 233° |
| 2026-05-06 01:29 | 36.12738 | -107.83982 | 35985 ft | 359 kts | 233° |
| 2026-05-06 01:30 | 36.09690 | -107.88886 | 35980 ft | 361 kts | 233° |
| 2026-05-06 01:30 | 36.06655 | -107.93763 | 35984 ft | 356 kts | 234° |
| 2026-05-06 01:31 | 36.03631 | -107.98603 | 35969 ft | 356 kts | 234° |
| 2026-05-06 01:31 | 36.00622 | -108.03419 | 35973 ft | 356 kts | 233° |
| 2026-05-06 01:32 | 35.97593 | -108.08258 | 35976 ft | 358 kts | 233° |
| 2026-05-06 01:32 | 35.94549 | -108.13111 | 35975 ft | 359 kts | 233° |
| 2026-05-06 01:33 | 35.91483 | -108.18005 | 35981 ft | 360 kts | 233° |
| 2026-05-06 01:33 | 35.88435 | -108.22857 | 35986 ft | 359 kts | 234° |
| 2026-05-06 01:34 | 35.85390 | -108.27711 | 35989 ft | 360 kts | 233° |
| 2026-05-06 01:34 | 35.82315 | -108.32594 | 35994 ft | 361 kts | 234° |
| 2026-05-06 01:35 | 35.79247 | -108.37455 | 35992 ft | 360 kts | 234° |
| 2026-05-06 01:35 | 35.76153 | -108.42340 | 35992 ft | 362 kts | 233° |
| 2026-05-06 01:36 | 35.73056 | -108.47221 | 35993 ft | 363 kts | 233° |
| 2026-05-06 01:36 | 35.69952 | -108.52104 | 36000 ft | 363 kts | 233° |
| 2026-05-06 01:37 | 35.66864 | -108.56983 | 36008 ft | 364 kts | 234° |
| 2026-05-06 01:37 | 35.63757 | -108.61888 | 36011 ft | 362 kts | 233° |
| 2026-05-06 01:38 | 35.60647 | -108.66778 | 36005 ft | 362 kts | 232° |
| 2026-05-06 01:38 | 35.57565 | -108.71624 | 35984 ft | 363 kts | 233° |
| 2026-05-06 01:39 | 35.54443 | -108.76514 | 35972 ft | 362 kts | 233° |
| 2026-05-06 01:39 | 35.51328 | -108.81399 | 35971 ft | 363 kts | 232° |
| 2026-05-06 01:40 | 35.48222 | -108.86258 | 35978 ft | 363 kts | 233° |
| 2026-05-06 01:40 | 35.44939 | -108.90936 | 36003 ft | 363 kts | 229° |
| 2026-05-06 01:41 | 35.41421 | -108.95393 | 36023 ft | 366 kts | 229° |
| 2026-05-06 01:41 | 35.37901 | -108.99852 | 36027 ft | 363 kts | 229° |
| 2026-05-06 01:42 | 35.34425 | -109.04314 | 36021 ft | 361 kts | 229° |
| 2026-05-06 01:42 | 35.30932 | -109.08817 | 36017 ft | 365 kts | 229° |
| 2026-05-06 01:43 | 35.27491 | -109.13247 | 36015 ft | 361 kts | 229° |
| 2026-05-06 01:43 | 35.23987 | -109.17738 | 36015 ft | 363 kts | 229° |
| 2026-05-06 01:44 | 35.20540 | -109.22167 | 36013 ft | 361 kts | 229° |
| 2026-05-06 01:44 | 35.17089 | -109.26608 | 36011 ft | 361 kts | 228° |
| 2026-05-06 01:45 | 35.13609 | -109.31084 | 36004 ft | 362 kts | 229° |
| 2026-05-06 01:45 | 35.10177 | -109.35490 | 36002 ft | 359 kts | 229° |
| 2026-05-06 01:46 | 35.06714 | -109.39931 | 36003 ft | 365 kts | 229° |
| 2026-05-06 01:46 | 35.03223 | -109.44396 | 36002 ft | 361 kts | 229° |
| 2026-05-06 01:47 | 34.99704 | -109.48896 | 36001 ft | 363 kts | 229° |
| 2026-05-06 01:47 | 34.96237 | -109.53309 | 36002 ft | 360 kts | 228° |
| 2026-05-06 01:48 | 34.92775 | -109.57704 | 36003 ft | 362 kts | 229° |
| 2026-05-06 01:48 | 34.89293 | -109.62125 | 36006 ft | 361 kts | 228° |
| 2026-05-06 01:49 | 34.85832 | -109.66531 | 36003 ft | 361 kts | 228° |